sensor_id;sensor_type;location;lat;lon;timestamp;pressure;altitude;pressure_sealevel;temperature;humidity
67345;BME280;54230;52.402;6.276;2023-03-14T00:00:00;98800.0;;;13.7;72.0
67345;BME280;54230;52.402;6.276;2023-03-14T00:05:00;98790.0;;;13.6;72.5
67345;BME280;54230;52.402;6.276;2023-03-14T00:10:00;98810.0;;;13.6;73.1
67345;BME280;54230;52.402;6.276;2023-03-14T00:15:00;98810.0;;;13.6;73.5
67345;BME280;54230;52.402;6.276;2023-03-14T00:20:00;98790.0;;;13.6;73.5
67345;BME280;54230;52.402;6.276;2023-03-14T00:25:00;98800.0;;;13.7;73.6
67345;BME280;54230;52.402;6.276;2023-03-14T00:30:01;98790.0;;;13.8;73.6
67345;BME280;54230;52.402;6.276;2023-03-14T00:35:00;98780.0;;;13.8;73.5
67345;BME280;54230;52.402;6.276;2023-03-14T00:40:00;98770.0;;;13.9;73.5
67345;BME280;54230;52.402;6.276;2023-03-14T00:45:00;98790.0;;;13.7;73.4
67345;BME280;54230;52.402;6.276;2023-03-14T00:50:00;98780.0;;;13.6;73.5
67345;BME280;54230;52.402;6.276;2023-03-14T00:55:00;98810.0;;;13.7;72.9
67345;BME280;54230;52.402;6.276;2023-03-14T01:00:00;98800.0;;;13.8;72.1
67345;BME280;54230;52.402;6.276;2023-03-14T01:05:00;98800.0;;;13.8;72.0
67345;BME280;54230;52.402;6.276;2023-03-14T01:10:00;98810.0;;;13.8;72.0
67345;BME280;54230;52.402;6.276;2023-03-14T01:15:00;98810.0;;;13.8;72.2
67345;BME280;54230;52.402;6.276;2023-03-14T01:20:01;98830.0;;;13.7;70.1
67345;BME280;54230;52.402;6.276;2023-03-14T01:25:00;98810.0;;;13.6;68.2
67345;BME280;54230;52.402;6.276;2023-03-14T01:30:00;98810.0;;;13.5;67.0
67345;BME280;54230;52.402;6.276;2023-03-14T01:35:00;98810.0;;;13.5;66.7
67345;BME280;54230;52.402;6.276;2023-03-14T01:40:00;98810.0;;;13.4;66.5
67345;BME280;54230;52.402;6.276;2023-03-14T01:45:03;98810.0;;;13.3;66.5
67345;BME280;54230;52.402;6.276;2023-03-14T01:50:04;98800.0;;;13.3;66.4
67345;BME280;54230;52.402;6.276;2023-03-14T01:55:04;98800.0;;;13.3;66.3
67345;BME280;54230;52.402;6.276;2023-03-14T02:00:03;98800.0;;;13.4;66.6
67345;BME280;54230;52.402;6.276;2023-03-14T02:05:00;98810.0;;;13.2;67.1
67345;BME280;54230;52.402;6.276;2023-03-14T02:10:01;98810.0;;;12.9;68.5
67345;BME280;54230;52.402;6.276;2023-03-14T02:15:00;98820.0;;;12.6;70.8
67345;BME280;54230;52.402;6.276;2023-03-14T02:20:13;98830.0;;;12.3;72.7
67345;BME280;54230;52.402;6.276;2023-03-14T02:25:06;98810.0;;;11.9;76.5
67345;BME280;54230;52.402;6.276;2023-03-14T02:30:03;98810.0;;;11.7;78.2
67345;BME280;54230;52.402;6.276;2023-03-14T02:35:04;98800.0;;;11.6;79.5
67345;BME280;54230;52.402;6.276;2023-03-14T02:40:00;98800.0;;;11.6;80.2
67345;BME280;54230;52.402;6.276;2023-03-14T02:50:03;98790.0;;;11.5;80.4
67345;BME280;54230;52.402;6.276;2023-03-14T02:55:00;98800.0;;;11.5;80.4
67345;BME280;54230;52.402;6.276;2023-03-14T03:00:00;98800.0;;;11.5;80.7
67345;BME280;54230;52.402;6.276;2023-03-14T03:05:00;98790.0;;;11.5;81.0
67345;BME280;54230;52.402;6.276;2023-03-14T03:10:00;98780.0;;;11.5;81.2
67345;BME280;54230;52.402;6.276;2023-03-14T03:15:00;98800.0;;;11.5;81.3
67345;BME280;54230;52.402;6.276;2023-03-14T03:20:00;98790.0;;;11.6;80.9
67345;BME280;54230;52.402;6.276;2023-03-14T03:25:00;98790.0;;;11.6;80.8
67345;BME280;54230;52.402;6.276;2023-03-14T03:30:01;98780.0;;;11.6;80.7
67345;BME280;54230;52.402;6.276;2023-03-14T03:35:01;98770.0;;;11.6;80.8
67345;BME280;54230;52.402;6.276;2023-03-14T03:40:00;98770.0;;;11.6;81.1
67345;BME280;54230;52.402;6.276;2023-03-14T03:45:01;98770.0;;;11.4;81.7
67345;BME280;54230;52.402;6.276;2023-03-14T03:50:00;98760.0;;;11.4;81.9
67345;BME280;54230;52.402;6.276;2023-03-14T03:55:00;98760.0;;;11.4;82.0
67345;BME280;54230;52.402;6.276;2023-03-14T04:00:00;98770.0;;;11.5;82.0
67345;BME280;54230;52.402;6.276;2023-03-14T04:05:00;98770.0;;;11.5;81.8
67345;BME280;54230;52.402;6.276;2023-03-14T04:10:00;98770.0;;;11.4;81.8
67345;BME280;54230;52.402;6.276;2023-03-14T04:15:00;98770.0;;;11.5;81.8
67345;BME280;54230;52.402;6.276;2023-03-14T04:20:00;98770.0;;;11.5;81.8
67345;BME280;54230;52.402;6.276;2023-03-14T04:25:00;98770.0;;;11.5;81.7
67345;BME280;54230;52.402;6.276;2023-03-14T04:30:00;98760.0;;;11.5;81.8
67345;BME280;54230;52.402;6.276;2023-03-14T04:35:00;98760.0;;;11.4;81.8
67345;BME280;54230;52.402;6.276;2023-03-14T04:40:00;98750.0;;;11.4;82.3
67345;BME280;54230;52.402;6.276;2023-03-14T04:45:00;98750.0;;;11.4;82.6
67345;BME280;54230;52.402;6.276;2023-03-14T04:50:00;98750.0;;;11.4;82.2
67345;BME280;54230;52.402;6.276;2023-03-14T04:55:00;98740.0;;;11.4;82.2
67345;BME280;54230;52.402;6.276;2023-03-14T05:00:00;98750.0;;;11.4;82.3
67345;BME280;54230;52.402;6.276;2023-03-14T05:05:00;98740.0;;;11.4;82.2
67345;BME280;54230;52.402;6.276;2023-03-14T05:10:00;98740.0;;;11.4;81.9
67345;BME280;54230;52.402;6.276;2023-03-14T05:15:00;98720.0;;;11.4;81.7
67345;BME280;54230;52.402;6.276;2023-03-14T05:20:00;98730.0;;;11.4;81.5
67345;BME280;54230;52.402;6.276;2023-03-14T05:25:00;98720.0;;;11.4;81.0
67345;BME280;54230;52.402;6.276;2023-03-14T05:30:00;98720.0;;;11.5;80.9
67345;BME280;54230;52.402;6.276;2023-03-14T05:35:00;98730.0;;;11.6;80.2
67345;BME280;54230;52.402;6.276;2023-03-14T05:40:00;98730.0;;;11.6;79.6
67345;BME280;54230;52.402;6.276;2023-03-14T05:45:00;98740.0;;;11.7;79.5
67345;BME280;54230;52.402;6.276;2023-03-14T05:50:00;98730.0;;;11.7;79.2
67345;BME280;54230;52.402;6.276;2023-03-14T05:55:00;98720.0;;;11.7;79.4
67345;BME280;54230;52.402;6.276;2023-03-14T06:00:00;98710.0;;;11.7;80.3
67345;BME280;54230;52.402;6.276;2023-03-14T06:05:00;98720.0;;;11.6;81.3
67345;BME280;54230;52.402;6.276;2023-03-14T06:10:00;98720.0;;;11.5;82.0
67345;BME280;54230;52.402;6.276;2023-03-14T06:15:00;98720.0;;;11.5;82.6
67345;BME280;54230;52.402;6.276;2023-03-14T06:20:00;98710.0;;;11.4;83.2
67345;BME280;54230;52.402;6.276;2023-03-14T06:25:00;98720.0;;;11.3;83.9
67345;BME280;54230;52.402;6.276;2023-03-14T06:30:00;98720.0;;;11.2;85.2
67345;BME280;54230;52.402;6.276;2023-03-14T06:35:00;98720.0;;;11.1;86.6
67345;BME280;54230;52.402;6.276;2023-03-14T06:40:00;98720.0;;;11.1;87.8
67345;BME280;54230;52.402;6.276;2023-03-14T06:45:00;98720.0;;;11.2;88.5
67345;BME280;54230;52.402;6.276;2023-03-14T06:50:00;98730.0;;;11.2;88.7
67345;BME280;54230;52.402;6.276;2023-03-14T06:55:00;98730.0;;;11.2;88.9
67345;BME280;54230;52.402;6.276;2023-03-14T07:00:00;98730.0;;;11.1;89.7
67345;BME280;54230;52.402;6.276;2023-03-14T07:05:00;98740.0;;;11.2;90.6
67345;BME280;54230;52.402;6.276;2023-03-14T07:10:00;98740.0;;;11.2;90.9
67345;BME280;54230;52.402;6.276;2023-03-14T07:15:00;98750.0;;;11.3;90.7
67345;BME280;54230;52.402;6.276;2023-03-14T07:20:00;98750.0;;;11.2;90.8
67345;BME280;54230;52.402;6.276;2023-03-14T07:25:00;98830.0;;;11.0;91.3
67345;BME280;54230;52.402;6.276;2023-03-14T07:30:00;98870.0;;;10.0;92.5
67345;BME280;54230;52.402;6.276;2023-03-14T07:35:00;98880.0;;;9.2;93.6
67345;BME280;54230;52.402;6.276;2023-03-14T07:40:00;98890.0;;;9.2;94.4
67345;BME280;54230;52.402;6.276;2023-03-14T07:45:00;98910.0;;;9.1;94.6
67345;BME280;54230;52.402;6.276;2023-03-14T07:50:00;98920.0;;;9.1;95.0
67345;BME280;54230;52.402;6.276;2023-03-14T07:55:00;98930.0;;;9.1;95.3
67345;BME280;54230;52.402;6.276;2023-03-14T08:00:00;98940.0;;;9.0;95.7
67345;BME280;54230;52.402;6.276;2023-03-14T08:05:00;98960.0;;;9.1;95.3
67345;BME280;54230;52.402;6.276;2023-03-14T08:10:00;98970.0;;;9.0;95.6
67345;BME280;54230;52.402;6.276;2023-03-14T08:15:00;99010.0;;;8.9;95.7
67345;BME280;54230;52.402;6.276;2023-03-14T08:20:00;99050.0;;;8.3;95.8
67345;BME280;54230;52.402;6.276;2023-03-14T08:25:00;99080.0;;;7.6;95.6
67345;BME280;54230;52.402;6.276;2023-03-14T08:30:01;99110.0;;;7.2;95.4
67345;BME280;54230;52.402;6.276;2023-03-14T08:35:00;99130.0;;;7.1;96.0
67345;BME280;54230;52.402;6.276;2023-03-14T08:40:00;99160.0;;;7.1;96.1
67345;BME280;54230;52.402;6.276;2023-03-14T08:45:00;99170.0;;;7.0;96.0
67345;BME280;54230;52.402;6.276;2023-03-14T08:50:00;99200.0;;;7.0;96.2
67345;BME280;54230;52.402;6.276;2023-03-14T08:55:00;99230.0;;;7.2;96.0
67345;BME280;54230;52.402;6.276;2023-03-14T09:00:00;99250.0;;;7.4;95.5
67345;BME280;54230;52.402;6.276;2023-03-14T09:05:00;99250.0;;;7.3;95.3
67345;BME280;54230;52.402;6.276;2023-03-14T09:15:02;99290.0;;;7.6;94.6
67345;BME280;54230;52.402;6.276;2023-03-14T09:20:00;99330.0;;;7.8;93.6
67345;BME280;54230;52.402;6.276;2023-03-14T09:25:00;99360.0;;;7.6;92.1
67345;BME280;54230;52.402;6.276;2023-03-14T09:30:00;99370.0;;;7.3;91.4
67345;BME280;54230;52.402;6.276;2023-03-14T09:35:00;99400.0;;;7.5;91.5
67345;BME280;54230;52.402;6.276;2023-03-14T09:40:00;99410.0;;;7.6;90.4
67345;BME280;54230;52.402;6.276;2023-03-14T09:45:03;99420.0;;;7.6;89.8
67345;BME280;54230;52.402;6.276;2023-03-14T09:50:00;99440.0;;;7.8;89.3
67345;BME280;54230;52.402;6.276;2023-03-14T09:55:03;99450.0;;;7.8;88.1
67345;BME280;54230;52.402;6.276;2023-03-14T10:00:05;99460.0;;;7.7;87.9
67345;BME280;54230;52.402;6.276;2023-03-14T10:05:00;99480.0;;;8.2;87.1
67345;BME280;54230;52.402;6.276;2023-03-14T10:10:00;99500.0;;;8.3;83.5
67345;BME280;54230;52.402;6.276;2023-03-14T10:15:03;99520.0;;;8.2;78.7
67345;BME280;54230;52.402;6.276;2023-03-14T10:20:00;99530.0;;;8.4;77.7
67345;BME280;54230;52.402;6.276;2023-03-14T10:25:02;99540.0;;;8.5;77.1
67345;BME280;54230;52.402;6.276;2023-03-14T10:30:03;99570.0;;;8.4;76.0
67345;BME280;54230;52.402;6.276;2023-03-14T10:35:07;99600.0;;;8.1;76.6
67345;BME280;54230;52.402;6.276;2023-03-14T10:40:02;99660.0;;;7.2;78.4
67345;BME280;54230;52.402;6.276;2023-03-14T10:45:02;99630.0;;;6.7;83.3
67345;BME280;54230;52.402;6.276;2023-03-14T10:55:02;99680.0;;;7.0;84.9
67345;BME280;54230;52.402;6.276;2023-03-14T11:00:00;99710.0;;;7.3;83.0
67345;BME280;54230;52.402;6.276;2023-03-14T11:05:09;99730.0;;;7.4;81.1
67345;BME280;54230;52.402;6.276;2023-03-14T11:10:03;99760.0;;;7.3;81.5
67345;BME280;54230;52.402;6.276;2023-03-14T11:15:04;99770.0;;;7.6;78.5
67345;BME280;54230;52.402;6.276;2023-03-14T11:20:08;99790.0;;;7.8;75.0
67345;BME280;54230;52.402;6.276;2023-03-14T11:25:11;99780.0;;;8.0;71.8
67345;BME280;54230;52.402;6.276;2023-03-14T11:30:04;99820.0;;;8.6;69.6
67345;BME280;54230;52.402;6.276;2023-03-14T11:35:03;99840.0;;;8.8;65.9
67345;BME280;54230;52.402;6.276;2023-03-14T11:40:05;99850.0;;;8.7;64.8
67345;BME280;54230;52.402;6.276;2023-03-14T11:45:01;99870.0;;;8.5;62.5
67345;BME280;54230;52.402;6.276;2023-03-14T11:50:04;99870.0;;;8.5;62.2
67345;BME280;54230;52.402;6.276;2023-03-14T11:55:05;99880.0;;;8.7;61.0
67345;BME280;54230;52.402;6.276;2023-03-14T12:00:04;99890.0;;;8.8;58.9
67345;BME280;54230;52.402;6.276;2023-03-14T12:10:02;99920.0;;;8.6;55.6
67345;BME280;54230;52.402;6.276;2023-03-14T12:15:01;99950.0;;;9.0;55.0
67345;BME280;54230;52.402;6.276;2023-03-14T12:20:02;99950.0;;;9.2;54.9
67345;BME280;54230;52.402;6.276;2023-03-14T12:25:04;99970.0;;;9.0;53.8
67345;BME280;54230;52.402;6.276;2023-03-14T12:30:00;99980.0;;;9.2;54.3
67345;BME280;54230;52.402;6.276;2023-03-14T12:35:07;99990.0;;;9.3;55.0
67345;BME280;54230;52.402;6.276;2023-03-14T12:40:11;100010.0;;;9.0;52.5
67345;BME280;54230;52.402;6.276;2023-03-14T12:45:14;100030.0;;;8.9;53.1
67345;BME280;54230;52.402;6.276;2023-03-14T12:50:07;100050.0;;;8.5;52.1
67345;BME280;54230;52.402;6.276;2023-03-14T12:55:03;100050.0;;;8.2;50.8
67345;BME280;54230;52.402;6.276;2023-03-14T13:00:01;100050.0;;;8.3;50.9
67345;BME280;54230;52.402;6.276;2023-03-14T13:05:03;100070.0;;;8.3;49.0
67345;BME280;54230;52.402;6.276;2023-03-14T13:10:03;100070.0;;;8.4;49.3
67345;BME280;54230;52.402;6.276;2023-03-14T13:15:00;100100.0;;;8.6;49.5
67345;BME280;54230;52.402;6.276;2023-03-14T13:20:03;100100.0;;;8.7;49.5
67345;BME280;54230;52.402;6.276;2023-03-14T13:25:02;100110.0;;;9.0;50.1
67345;BME280;54230;52.402;6.276;2023-03-14T13:30:05;100120.0;;;8.9;49.2
67345;BME280;54230;52.402;6.276;2023-03-14T13:35:00;100140.0;;;8.9;47.3
67345;BME280;54230;52.402;6.276;2023-03-14T13:40:00;100150.0;;;8.8;47.2
67345;BME280;54230;52.402;6.276;2023-03-14T13:45:00;100170.0;;;9.3;47.0
67345;BME280;54230;52.402;6.276;2023-03-14T13:50:00;100180.0;;;9.4;47.4
67345;BME280;54230;52.402;6.276;2023-03-14T13:55:00;100200.0;;;9.0;46.2
67345;BME280;54230;52.402;6.276;2023-03-14T14:00:03;100210.0;;;9.2;46.7
67345;BME280;54230;52.402;6.276;2023-03-14T14:05:00;100240.0;;;9.3;46.0
67345;BME280;54230;52.402;6.276;2023-03-14T14:10:00;100250.0;;;9.1;46.5
67345;BME280;54230;52.402;6.276;2023-03-14T14:15:02;100260.0;;;9.1;46.2
67345;BME280;54230;52.402;6.276;2023-03-14T14:20:00;100270.0;;;9.5;46.7
67345;BME280;54230;52.402;6.276;2023-03-14T14:25:00;100290.0;;;9.6;45.7
67345;BME280;54230;52.402;6.276;2023-03-14T14:30:02;100300.0;;;9.3;46.7
67345;BME280;54230;52.402;6.276;2023-03-14T14:35:00;100320.0;;;9.1;47.4
67345;BME280;54230;52.402;6.276;2023-03-14T14:40:07;100330.0;;;9.1;48.1
67345;BME280;54230;52.402;6.276;2023-03-14T14:45:02;100350.0;;;9.2;47.2
67345;BME280;54230;52.402;6.276;2023-03-14T14:50:03;100360.0;;;8.9;45.2
67345;BME280;54230;52.402;6.276;2023-03-14T14:55:01;100370.0;;;8.9;44.7
67345;BME280;54230;52.402;6.276;2023-03-14T15:00:02;100370.0;;;8.8;44.7
67345;BME280;54230;52.402;6.276;2023-03-14T15:05:00;100380.0;;;9.2;44.7
67345;BME280;54230;52.402;6.276;2023-03-14T15:10:00;100390.0;;;9.2;45.1
67345;BME280;54230;52.402;6.276;2023-03-14T15:15:00;100410.0;;;9.4;46.5
67345;BME280;54230;52.402;6.276;2023-03-14T15:20:00;100410.0;;;9.4;46.6
67345;BME280;54230;52.402;6.276;2023-03-14T15:25:00;100440.0;;;9.5;46.6
67345;BME280;54230;52.402;6.276;2023-03-14T15:30:00;100430.0;;;9.3;46.2
67345;BME280;54230;52.402;6.276;2023-03-14T15:35:00;100440.0;;;9.0;45.8
67345;BME280;54230;52.402;6.276;2023-03-14T15:40:00;100460.0;;;8.9;45.8
67345;BME280;54230;52.402;6.276;2023-03-14T15:45:00;100460.0;;;8.7;46.2
67345;BME280;54230;52.402;6.276;2023-03-14T15:50:00;100470.0;;;8.7;46.4
67345;BME280;54230;52.402;6.276;2023-03-14T15:55:00;100480.0;;;8.6;45.5
67345;BME280;54230;52.402;6.276;2023-03-14T16:00:00;100480.0;;;8.6;45.1
67345;BME280;54230;52.402;6.276;2023-03-14T16:05:00;100510.0;;;8.7;45.2
67345;BME280;54230;52.402;6.276;2023-03-14T16:10:00;100520.0;;;8.8;44.6
67345;BME280;54230;52.402;6.276;2023-03-14T16:15:00;100540.0;;;8.6;44.7
67345;BME280;54230;52.402;6.276;2023-03-14T16:20:00;100530.0;;;8.3;45.2
67345;BME280;54230;52.402;6.276;2023-03-14T16:25:00;100550.0;;;8.2;45.5
67345;BME280;54230;52.402;6.276;2023-03-14T16:30:00;100550.0;;;8.0;46.4
67345;BME280;54230;52.402;6.276;2023-03-14T16:35:00;100570.0;;;8.0;48.2
67345;BME280;54230;52.402;6.276;2023-03-14T16:40:00;100580.0;;;8.4;49.0
67345;BME280;54230;52.402;6.276;2023-03-14T16:45:00;100600.0;;;8.4;49.6
67345;BME280;54230;52.402;6.276;2023-03-14T16:50:00;100600.0;;;8.5;50.4
67345;BME280;54230;52.402;6.276;2023-03-14T16:55:00;100620.0;;;8.6;50.8
67345;BME280;54230;52.402;6.276;2023-03-14T17:00:00;100630.0;;;8.9;50.9
67345;BME280;54230;52.402;6.276;2023-03-14T17:05:00;100630.0;;;9.0;51.6
67345;BME280;54230;52.402;6.276;2023-03-14T17:10:00;100650.0;;;9.0;52.5
67345;BME280;54230;52.402;6.276;2023-03-14T17:15:00;100650.0;;;8.7;51.1
67345;BME280;54230;52.402;6.276;2023-03-14T17:20:00;100660.0;;;8.6;50.2
67345;BME280;54230;52.402;6.276;2023-03-14T17:25:00;100670.0;;;8.6;50.5
67345;BME280;54230;52.402;6.276;2023-03-14T17:30:00;100680.0;;;8.2;50.4
67345;BME280;54230;52.402;6.276;2023-03-14T17:35:00;100690.0;;;8.1;51.1
67345;BME280;54230;52.402;6.276;2023-03-14T17:40:00;100700.0;;;8.2;51.3
67345;BME280;54230;52.402;6.276;2023-03-14T17:45:00;100710.0;;;8.2;51.5
67345;BME280;54230;52.402;6.276;2023-03-14T17:50:00;100710.0;;;8.0;52.6
67345;BME280;54230;52.402;6.276;2023-03-14T17:55:00;100730.0;;;7.9;52.9
67345;BME280;54230;52.402;6.276;2023-03-14T18:00:00;100730.0;;;7.6;54.1
67345;BME280;54230;52.402;6.276;2023-03-14T18:05:00;100740.0;;;7.4;54.9
67345;BME280;54230;52.402;6.276;2023-03-14T18:10:00;100750.0;;;7.2;55.1
67345;BME280;54230;52.402;6.276;2023-03-14T18:15:00;100760.0;;;7.2;55.4
67345;BME280;54230;52.402;6.276;2023-03-14T18:20:00;100760.0;;;7.4;56.1
67345;BME280;54230;52.402;6.276;2023-03-14T18:25:00;100770.0;;;7.2;55.7
67345;BME280;54230;52.402;6.276;2023-03-14T18:30:00;100800.0;;;7.1;55.9
67345;BME280;54230;52.402;6.276;2023-03-14T18:35:00;100810.0;;;6.8;56.8
67345;BME280;54230;52.402;6.276;2023-03-14T18:40:00;100820.0;;;6.6;57.9
67345;BME280;54230;52.402;6.276;2023-03-14T18:45:00;100820.0;;;6.4;59.4
67345;BME280;54230;52.402;6.276;2023-03-14T18:50:00;100830.0;;;6.1;60.9
67345;BME280;54230;52.402;6.276;2023-03-14T18:55:00;100840.0;;;5.8;62.0
67345;BME280;54230;52.402;6.276;2023-03-14T19:00:00;100850.0;;;5.6;62.8
67345;BME280;54230;52.402;6.276;2023-03-14T19:05:00;100840.0;;;5.4;63.7
67345;BME280;54230;52.402;6.276;2023-03-14T19:10:00;100840.0;;;5.3;64.4
67345;BME280;54230;52.402;6.276;2023-03-14T19:15:00;100850.0;;;5.1;65.2
67345;BME280;54230;52.402;6.276;2023-03-14T19:20:00;100850.0;;;5.0;65.8
67345;BME280;54230;52.402;6.276;2023-03-14T19:25:00;100850.0;;;4.9;66.1
67345;BME280;54230;52.402;6.276;2023-03-14T19:30:00;100850.0;;;4.8;66.4
67345;BME280;54230;52.402;6.276;2023-03-14T19:35:00;100850.0;;;4.8;66.4
67345;BME280;54230;52.402;6.276;2023-03-14T19:40:00;100850.0;;;4.8;66.3
67345;BME280;54230;52.402;6.276;2023-03-14T19:45:00;100850.0;;;4.8;66.0
67345;BME280;54230;52.402;6.276;2023-03-14T19:50:00;100870.0;;;4.8;65.9
67345;BME280;54230;52.402;6.276;2023-03-14T19:55:00;100880.0;;;4.9;65.5
67345;BME280;54230;52.402;6.276;2023-03-14T20:00:00;100890.0;;;5.1;65.0
67345;BME280;54230;52.402;6.276;2023-03-14T20:05:00;100890.0;;;5.1;64.6
67345;BME280;54230;52.402;6.276;2023-03-14T20:10:00;100890.0;;;5.0;64.6
67345;BME280;54230;52.402;6.276;2023-03-14T20:15:00;100890.0;;;4.9;64.8
67345;BME280;54230;52.402;6.276;2023-03-14T20:20:00;100890.0;;;4.8;65.0
67345;BME280;54230;52.402;6.276;2023-03-14T20:25:00;100890.0;;;4.8;65.2
67345;BME280;54230;52.402;6.276;2023-03-14T20:30:00;100910.0;;;4.8;65.1
67345;BME280;54230;52.402;6.276;2023-03-14T20:35:00;100920.0;;;4.7;65.1
67345;BME280;54230;52.402;6.276;2023-03-14T20:40:00;100910.0;;;4.6;65.6
67345;BME280;54230;52.402;6.276;2023-03-14T20:45:00;100920.0;;;4.5;66.2
67345;BME280;54230;52.402;6.276;2023-03-14T20:50:00;100920.0;;;4.5;66.6
67345;BME280;54230;52.402;6.276;2023-03-14T20:55:00;100930.0;;;4.6;67.2
67345;BME280;54230;52.402;6.276;2023-03-14T21:00:00;100930.0;;;4.6;66.9
67345;BME280;54230;52.402;6.276;2023-03-14T21:05:00;100940.0;;;4.4;67.0
67345;BME280;54230;52.402;6.276;2023-03-14T21:10:00;100940.0;;;4.4;67.1
67345;BME280;54230;52.402;6.276;2023-03-14T21:15:00;100930.0;;;4.3;67.0
67345;BME280;54230;52.402;6.276;2023-03-14T21:20:00;100930.0;;;4.3;66.9
67345;BME280;54230;52.402;6.276;2023-03-14T21:25:00;100940.0;;;4.3;66.9
67345;BME280;54230;52.402;6.276;2023-03-14T21:30:00;100930.0;;;4.4;67.1
67345;BME280;54230;52.402;6.276;2023-03-14T21:35:00;100930.0;;;4.4;66.8
67345;BME280;54230;52.402;6.276;2023-03-14T21:40:00;100930.0;;;4.5;66.5
67345;BME280;54230;52.402;6.276;2023-03-14T21:45:00;100930.0;;;4.5;66.1
67345;BME280;54230;52.402;6.276;2023-03-14T21:50:00;100930.0;;;4.6;65.4
67345;BME280;54230;52.402;6.276;2023-03-14T21:55:00;100930.0;;;4.7;64.6
67345;BME280;54230;52.402;6.276;2023-03-14T22:00:00;100930.0;;;4.6;64.3
67345;BME280;54230;52.402;6.276;2023-03-14T22:05:00;100930.0;;;4.8;64.7
67345;BME280;54230;52.402;6.276;2023-03-14T22:10:00;100930.0;;;4.8;64.2
67345;BME280;54230;52.402;6.276;2023-03-14T22:15:00;100950.0;;;4.8;64.1
67345;BME280;54230;52.402;6.276;2023-03-14T22:20:00;100950.0;;;4.8;64.4
67345;BME280;54230;52.402;6.276;2023-03-14T22:25:00;100970.0;;;4.8;64.8
67345;BME280;54230;52.402;6.276;2023-03-14T22:30:00;100990.0;;;4.7;65.7
67345;BME280;54230;52.402;6.276;2023-03-14T22:35:00;101000.0;;;4.7;66.8
67345;BME280;54230;52.402;6.276;2023-03-14T22:40:00;101000.0;;;4.7;68.6
67345;BME280;54230;52.402;6.276;2023-03-14T22:45:00;101020.0;;;4.7;69.9
67345;BME280;54230;52.402;6.276;2023-03-14T22:50:00;101030.0;;;4.7;71.7
67345;BME280;54230;52.402;6.276;2023-03-14T22:55:00;101040.0;;;4.3;73.1
67345;BME280;54230;52.402;6.276;2023-03-14T23:00:00;101030.0;;;4.0;75.3
67345;BME280;54230;52.402;6.276;2023-03-14T23:05:00;101030.0;;;3.9;77.1
67345;BME280;54230;52.402;6.276;2023-03-14T23:10:00;101030.0;;;3.8;78.3
67345;BME280;54230;52.402;6.276;2023-03-14T23:15:00;101030.0;;;3.6;79.2
67345;BME280;54230;52.402;6.276;2023-03-14T23:20:00;101030.0;;;3.5;79.9
67345;BME280;54230;52.402;6.276;2023-03-14T23:25:00;101030.0;;;3.4;80.6
67345;BME280;54230;52.402;6.276;2023-03-14T23:30:00;101040.0;;;3.3;81.3
67345;BME280;54230;52.402;6.276;2023-03-14T23:35:00;101040.0;;;3.4;81.8
67345;BME280;54230;52.402;6.276;2023-03-14T23:40:00;101040.0;;;3.4;82.3
67345;BME280;54230;52.402;6.276;2023-03-14T23:45:00;101040.0;;;3.4;82.7
67345;BME280;54230;52.402;6.276;2023-03-14T23:50:00;101040.0;;;3.3;83.2
67345;BME280;54230;52.402;6.276;2023-03-14T23:55:00;101040.0;;;3.2;83.8
